Strona główna
METAR-TAF:

METAR-TAF

Lotnisko :

Port lotniczy Honningsvåg

Honningsvåg, Norwegia

Szerokość geograficzna: 71-01N, Długość geograficzna: 025-59E, wysokość: 1 m

Aktualna obserwacja pogody

Raport powstał 23 godziny i 7 minut temu, godzina 20:50 UTC
Wiatr 9 kt od południe
Temperatura 14°C
Wilgotność 77%
Ciśnienie 1012 hPa
Widzialność 10 km lub więcej
Brak chmur poniżej 1500 m i brak chmur cumulonimbus

METAR: ENHV 192050Z 17009KT CAVOK 14/10 Q1012

czas: 21:57 (19:57 UTC)


TAF: brakujący

Obserwacja i prognoza pogody dla ponad 4000 lotnisk (raport METAR i TAF).

Dostępne stacje oznaczono żółtymi i czerwonymi punktami na mapie.

Najedź kursorem aby zobaczyć nazwę stacji.

Kliknij aby zobaczyć obserwacje i prognozy pogody.

Aby zmienić mapę: kliknij na zielony przycisk z czarnym krzyżykiem, aby powiększyć; na zielony przycisk z myślnikiem, aby pomniejszyć; na zielone strzałki, aby przejść do map sąsiednich.


METAR-TAF: